Time;durP1;ratioP1;P1;durP2;ratioP2;P2;SDS_P1;SDS_P2;PMS_P1;PMS_P2;Temp;Humidity;BMP_temperature;BMP_pressure;BME280_temperature;BME280_humidity;BME280_pressure;Samples;Min_cycle;Max_cycle;Signal;HPM_P1;HPM_P2
2021/01/13 00:00:23;;;;;;;175.75;93.53;;;;;;;;;;5096403;28;20016;-69
2021/01/13 00:02:49;;;;;;;177.00;86.07;;;;;;;;;;5096559;28;20353;-66
2021/01/13 00:05:16;;;;;;;161.13;82.90;;;;;;;;;;5094667;28;20098;-67
2021/01/13 00:07:42;;;;;;;157.85;81.07;;;;;;;;;;5094416;28;20410;-68
2021/01/13 00:10:09;;;;;;;154.63;76.70;;;;;;;;;;5096233;28;20102;-67
2021/01/13 00:12:36;;;;;;;134.10;65.53;;;;;;;;;;5094548;28;20020;-68
2021/01/13 00:15:03;;;;;;;148.25;71.13;;;;;;;;;;5096094;28;20241;-67
2021/01/13 00:17:29;;;;;;;141.80;65.25;;;;;;;;;;5096873;28;20467;-67
2021/01/13 00:19:55;;;;;;;149.45;72.70;;;;;;;;;;5094546;28;20020;-67
2021/01/13 00:22:21;;;;;;;157.20;75.82;;;;;;;;;;5095905;28;20080;-69
2021/01/13 00:24:47;;;;;;;175.48;84.35;;;;;;;;;;5096092;28;20031;-67
2021/01/13 00:27:13;;;;;;;179.35;80.97;;;;;;;;;;5095821;28;20027;-66
2021/01/13 00:29:39;;;;;;;186.48;83.85;;;;;;;;;;5095658;28;20027;-68
2021/01/13 00:32:05;;;;;;;201.55;93.45;;;;;;;;;;5094651;28;20040;-67
2021/01/13 00:34:32;;;;;;;224.32;107.15;;;;;;;;;;5094884;28;20042;-67
2021/01/13 00:36:58;;;;;;;179.02;90.97;;;;;;;;;;5095880;28;20012;-68
2021/01/13 00:39:24;;;;;;;169.07;84.57;;;;;;;;;;5095581;28;20530;-66
2021/01/13 00:41:50;;;;;;;126.35;61.70;;;;;;;;;;5095101;28;20016;-67
2021/01/13 00:44:16;;;;;;;127.05;64.35;;;;;;;;;;5094989;28;20070;-69
2021/01/13 00:46:44;;;;;;;158.15;82.60;;;;;;;;;;5094976;28;20031;-67
2021/01/13 00:49:10;;;;;;;121.50;60.78;;;;;;;;;;5095139;28;20062;-66
2021/01/13 00:51:38;;;;;;;143.25;71.88;;;;;;;;;;5095139;28;20024;-70
2021/01/13 00:54:04;;;;;;;145.82;72.57;;;;;;;;;;5093796;28;20024;-68
2021/01/13 00:56:31;;;;;;;120.55;60.47;;;;;;;;;;5095240;28;20083;-71
2021/01/13 00:58:58;;;;;;;141.57;69.97;;;;;;;;;;5093924;28;20080;-70
2021/01/13 01:01:27;;;;;;;141.02;67.95;;;;;;;;;;5095061;28;20420;-69
2021/01/13 01:03:54;;;;;;;250.20;110.13;;;;;;;;;;5094839;28;20016;-70
2021/01/13 01:06:21;;;;;;;221.43;95.33;;;;;;;;;;5094827;28;20020;-70
2021/01/13 01:08:47;;;;;;;310.77;134.55;;;;;;;;;;5095013;28;20028;-69
2021/01/13 01:11:14;;;;;;;203.93;97.32;;;;;;;;;;5094023;28;20353;-71
2021/01/13 01:13:40;;;;;;;150.30;75.20;;;;;;;;;;5093707;28;20360;-71
2021/01/13 01:16:08;;;;;;;137.35;62.80;;;;;;;;;;5094343;28;20031;-69
2021/01/13 01:18:34;;;;;;;105.97;53.38;;;;;;;;;;5093593;28;20066;-69
2021/01/13 01:21:00;;;;;;;114.35;52.72;;;;;;;;;;5093345;28;20024;-70
2021/01/13 01:23:26;;;;;;;109.20;52.03;;;;;;;;;;5093200;28;20365;-69
2021/01/13 01:25:52;;;;;;;105.75;50.35;;;;;;;;;;5094847;28;20111;-70
2021/01/13 01:28:18;;;;;;;100.55;48.65;;;;;;;;;;5094672;28;20031;-69
2021/01/13 01:30:44;;;;;;;105.63;49.80;;;;;;;;;;5092762;28;20132;-70
2021/01/13 01:33:10;;;;;;;101.68;49.97;;;;;;;;;;5095166;28;20027;-69
2021/01/13 01:35:36;;;;;;;106.25;50.72;;;;;;;;;;5093252;28;20074;-70
2021/01/13 01:38:02;;;;;;;110.47;53.42;;;;;;;;;;5093083;28;20039;-69
2021/01/13 01:40:28;;;;;;;107.13;52.13;;;;;;;;;;5093200;28;20103;-69
2021/01/13 01:42:55;;;;;;;91.55;47.50;;;;;;;;;;5094491;28;20055;-68
2021/01/13 01:45:25;;;;;;;89.18;47.85;;;;;;;;;;5092723;28;20039;-70
2021/01/13 01:48:01;;;;;;;104.03;45.88;;;;;;;;;;5094538;28;20028;-68
2021/01/13 01:50:30;;;;;;;105.50;49.90;;;;;;;;;;5092459;28;20058;-69
2021/01/13 01:53:16;;;;;;;93.13;47.67;;;;;;;;;;5093988;28;20048;-69
2021/01/13 01:55:48;;;;;;;96.60;45.58;;;;;;;;;;5086547;28;20040;-69
2021/01/13 01:58:22;;;;;;;104.07;49.85;;;;;;;;;;5093686;28;20503;-69
2021/01/13 02:00:49;;;;;;;95.80;46.20;;;;;;;;;;5094204;28;20029;-68
2021/01/13 02:03:20;;;;;;;104.60;50.38;;;;;;;;;;5093927;28;20031;-68
2021/01/13 02:05:47;;;;;;;102.65;48.42;;;;;;;;;;5093482;28;20028;-69
2021/01/13 02:08:21;;;;;;;103.63;52.05;;;;;;;;;;5094166;28;20115;-68
2021/01/13 02:10:50;;;;;;;109.18;48.85;;;;;;;;;;5094316;28;20445;-69
2021/01/13 02:13:19;;;;;;;98.70;49.28;;;;;;;;;;5092404;28;20017;-70
2021/01/13 02:15:46;;;;;;;91.28;45.08;;;;;;;;;;5093270;28;20093;-69
2021/01/13 02:18:15;;;;;;;88.30;47.90;;;;;;;;;;5094404;28;20024;-69
2021/01/13 02:20:45;;;;;;;109.65;52.05;;;;;;;;;;5093619;28;20365;-70
2021/01/13 02:23:19;;;;;;;92.05;44.55;;;;;;;;;;5092627;28;20461;-68
2021/01/13 02:26:11;;;;;;;99.72;47.58;;;;;;;;;;5093537;28;20039;-69
2021/01/13 02:28:44;;;;;;;99.88;44.58;;;;;;;;;;5093807;28;20449;-69
2021/01/13 02:31:19;;;;;;;98.80;44.88;;;;;;;;;;5093886;28;20372;-69
2021/01/13 02:33:52;;;;;;;85.82;44.63;;;;;;;;;;5092226;28;20023;-69
2021/01/13 02:36:18;;;;;;;90.82;43.30;;;;;;;;;;5093825;28;20028;-69
2021/01/13 02:38:47;;;;;;;92.95;44.33;;;;;;;;;;5093754;28;20146;-69
2021/01/13 02:41:15;;;;;;;91.57;46.42;;;;;;;;;;5093266;28;20016;-68
2021/01/13 02:43:50;;;;;;;91.30;46.25;;;;;;;;;;5093747;28;20413;-68
2021/01/13 02:46:18;;;;;;;100.32;48.40;;;;;;;;;;5093698;28;20028;-68
2021/01/13 02:48:44;;;;;;;95.00;43.95;;;;;;;;;;5092101;28;20519;-68
2021/01/13 02:51:21;;;;;;;81.65;41.58;;;;;;;;;;5092179;28;20074;-68
2021/01/13 02:53:55;;;;;;;87.50;42.92;;;;;;;;;;5093886;28;20473;-67
2021/01/13 02:56:25;;;;;;;90.32;41.30;;;;;;;;;;5098208;28;20020;-67
2021/01/13 02:58:59;;;;;;;90.63;43.58;;;;;;;;;;5097280;28;20457;-69
2021/01/13 03:01:26;;;;;;;90.53;46.05;;;;;;;;;;5095915;28;20116;-67
2021/01/13 03:03:52;;;;;;;98.38;45.70;;;;;;;;;;5096276;28;20548;-68
2021/01/13 03:06:21;;;;;;;78.28;39.42;;;;;;;;;;5096612;28;20349;-68
2021/01/13 03:08:49;;;;;;;84.18;42.85;;;;;;;;;;5096837;28;20022;-68
2021/01/13 03:11:18;;;;;;;99.35;51.17;;;;;;;;;;5097491;28;20500;-68
2021/01/13 03:13:45;;;;;;;93.82;46.00;;;;;;;;;;5095725;28;20028;-68
2021/01/13 03:16:14;;;;;;;90.10;44.58;;;;;;;;;;5095873;28;20028;-68
2021/01/13 03:18:47;;;;;;;98.80;48.72;;;;;;;;;;5096367;28;20365;-68
2021/01/13 03:21:15;;;;;;;107.45;53.72;;;;;;;;;;5096734;28;20042;-69
2021/01/13 03:23:44;;;;;;;92.63;48.17;;;;;;;;;;5096810;28;20028;-68
2021/01/13 03:26:13;;;;;;;98.30;49.30;;;;;;;;;;5096652;28;20028;-69
2021/01/13 03:28:41;;;;;;;129.48;61.45;;;;;;;;;;5095363;28;20020;-68
2021/01/13 03:31:08;;;;;;;104.65;52.25;;;;;;;;;;5095763;28;20346;-68
2021/01/13 03:33:52;;;;;;;89.27;43.87;;;;;;;;;;5097167;28;20028;-70
2021/01/13 03:36:24;;;;;;;86.63;45.28;;;;;;;;;;5096258;28;20016;-68
2021/01/13 03:39:02;;;;;;;135.32;63.17;;;;;;;;;;5097126;28;20020;-69
2021/01/13 03:41:35;;;;;;;89.75;46.10;;;;;;;;;;5095128;28;20422;-68
2021/01/13 03:44:08;;;;;;;101.15;46.55;;;;;;;;;;5096194;28;20031;-68
2021/01/13 03:46:35;;;;;;;90.40;44.42;;;;;;;;;;5095400;28;20028;-70
2021/01/13 03:49:02;;;;;;;91.78;45.05;;;;;;;;;;5095798;28;20016;-68
2021/01/13 03:51:31;;;;;;;112.80;56.00;;;;;;;;;;5096750;28;20376;-69
2021/01/13 03:54:00;;;;;;;102.53;48.53;;;;;;;;;;5098014;28;20019;-69
2021/01/13 03:56:27;;;;;;;107.57;52.35;;;;;;;;;;5097430;28;20076;-69
2021/01/13 03:58:53;;;;;;;120.03;57.47;;;;;;;;;;5097187;28;20051;-68
2021/01/13 04:01:19;;;;;;;131.38;63.83;;;;;;;;;;5095974;28;20012;-69
2021/01/13 04:04:04;;;;;;;92.93;48.85;;;;;;;;;;5097028;28;20360;-68
2021/01/13 04:06:34;;;;;;;86.75;43.58;;;;;;;;;;5096701;28;20028;-68
2021/01/13 04:09:01;;;;;;;125.45;59.25;;;;;;;;;;5095924;28;20070;-68
2021/01/13 04:11:29;;;;;;;87.20;43.47;;;;;;;;;;5095925;28;20024;-68
2021/01/13 04:14:02;;;;;;;86.53;43.78;;;;;;;;;;5095762;28;20095;-69
2021/01/13 04:16:35;;;;;;;82.65;41.58;;;;;;;;;;5094894;28;20464;-68
2021/01/13 04:19:01;;;;;;;82.00;39.88;;;;;;;;;;5096550;28;20027;-68
2021/01/13 04:21:27;;;;;;;96.65;47.28;;;;;;;;;;5097077;28;20020;-68
2021/01/13 04:23:57;;;;;;;89.88;43.50;;;;;;;;;;5095904;28;20019;-69
2021/01/13 04:26:24;;;;;;;89.40;43.45;;;;;;;;;;5096171;28;20114;-73
2021/01/13 04:28:50;;;;;;;80.75;40.95;;;;;;;;;;5094761;28;20020;-71
2021/01/13 04:31:16;;;;;;;94.75;44.65;;;;;;;;;;5094055;28;20048;-72
2021/01/13 04:33:42;;;;;;;82.07;41.42;;;;;;;;;;5094737;28;20039;-68
2021/01/13 04:36:09;;;;;;;80.32;38.85;;;;;;;;;;5094963;28;20423;-70
2021/01/13 04:38:35;;;;;;;97.53;49.58;;;;;;;;;;5095215;28;20077;-69
2021/01/13 04:41:12;;;;;;;98.65;47.00;;;;;;;;;;5094050;28;20027;-69
2021/01/13 04:43:41;;;;;;;88.45;43.92;;;;;;;;;;5095265;28;20020;-70
2021/01/13 04:46:08;;;;;;;84.20;42.22;;;;;;;;;;5094631;28;20108;-71
2021/01/13 04:48:40;;;;;;;104.07;48.25;;;;;;;;;;5095329;28;20026;-70
2021/01/13 04:51:09;;;;;;;120.30;57.53;;;;;;;;;;5094954;28;20087;-70
2021/01/13 04:53:35;;;;;;;114.88;56.60;;;;;;;;;;5094345;28;20020;-71
2021/01/13 04:56:02;;;;;;;119.22;61.47;;;;;;;;;;5093636;28;20113;-70
2021/01/13 04:58:32;;;;;;;108.63;55.08;;;;;;;;;;5093972;28;20107;-71
2021/01/13 05:01:13;;;;;;;94.93;50.42;;;;;;;;;;5094745;28;20028;-70
2021/01/13 05:03:40;;;;;;;92.85;47.58;;;;;;;;;;5093818;28;20023;-69
2021/01/13 05:06:15;;;;;;;106.10;53.15;;;;;;;;;;5093788;28;20442;-69
2021/01/13 05:08:41;;;;;;;104.20;52.38;;;;;;;;;;5093229;28;20081;-70
2021/01/13 05:11:11;;;;;;;95.00;48.38;;;;;;;;;;5093672;28;20020;-70
2021/01/13 05:13:40;;;;;;;110.68;54.33;;;;;;;;;;5094358;28;20081;-70
2021/01/13 05:16:10;;;;;;;93.95;47.85;;;;;;;;;;5092770;28;20047;-70
2021/01/13 05:18:53;;;;;;;100.57;52.30;;;;;;;;;;5092543;28;20028;-68
2021/01/13 05:21:20;;;;;;;85.63;44.65;;;;;;;;;;5091404;28;20028;-71
2021/01/13 05:23:49;;;;;;;96.00;48.88;;;;;;;;;;5092256;28;20020;-67
2021/01/13 05:26:38;;;;;;;99.95;51.67;;;;;;;;;;5092786;28;20019;-69
2021/01/13 05:29:04;;;;;;;99.90;47.78;;;;;;;;;;5092485;28;20012;-69
2021/01/13 05:31:34;;;;;;;90.25;46.95;;;;;;;;;;5093082;28;20039;-70
2021/01/13 05:34:03;;;;;;;79.07;44.65;;;;;;;;;;5094892;28;20016;-69
2021/01/13 05:36:33;;;;;;;82.90;43.75;;;;;;;;;;5094269;28;20156;-71
2021/01/13 05:39:13;;;;;;;81.55;39.95;;;;;;;;;;5094552;28;20016;-71
2021/01/13 05:41:40;;;;;;;89.72;44.70;;;;;;;;;;5092849;28;20482;-70
2021/01/13 05:44:07;;;;;;;74.70;41.03;;;;;;;;;;5093744;28;20338;-69
2021/01/13 05:46:43;;;;;;;84.53;44.00;;;;;;;;;;5094458;28;20016;-69
2021/01/13 05:49:10;;;;;;;97.25;47.17;;;;;;;;;;5093816;28;20011;-68
2021/01/13 05:51:36;;;;;;;88.82;42.95;;;;;;;;;;5094371;28;20322;-69
2021/01/13 05:54:03;;;;;;;83.55;44.05;;;;;;;;;;5094836;28;20024;-69
2021/01/13 05:56:30;;;;;;;95.90;47.40;;;;;;;;;;5093778;28;20028;-69
2021/01/13 05:59:02;;;;;;;93.07;46.22;;;;;;;;;;5092650;28;20702;-68
2021/01/13 06:01:35;;;;;;;79.05;41.05;;;;;;;;;;5094230;28;20030;-68
2021/01/13 06:04:04;;;;;;;83.75;41.72;;;;;;;;;;5093936;28;20031;-70
2021/01/13 06:06:34;;;;;;;85.95;42.20;;;;;;;;;;5094374;28;20090;-68
2021/01/13 06:09:01;;;;;;;78.97;42.00;;;;;;;;;;5093395;28;20054;-69
2021/01/13 06:11:29;;;;;;;87.40;42.63;;;;;;;;;;5093824;28;20020;-69
2021/01/13 06:13:55;;;;;;;;;;;;;;;;;;5094472;28;20020;-69
2021/01/13 06:16:21;;;;;;;78.78;41.38;;;;;;;;;;5092782;28;19900;-68
2021/01/13 06:18:50;;;;;;;78.70;41.80;;;;;;;;;;5093740;28;20496;-69
2021/01/13 06:21:16;;;;;;;74.45;39.45;;;;;;;;;;5093716;28;20035;-69
2021/01/13 06:23:49;;;;;;;93.13;47.58;;;;;;;;;;5109102;28;20085;-69
2021/01/13 06:26:16;;;;;;;94.57;49.38;;;;;;;;;;5093617;28;20028;-69
2021/01/13 06:28:57;;;;;;;99.67;47.13;;;;;;;;;;5093233;28;20111;-69
2021/01/13 06:31:25;;;;;;;99.35;46.85;;;;;;;;;;5096603;28;20628;-69
2021/01/13 06:34:05;;;;;;;90.65;48.03;;;;;;;;;;5098063;28;20078;-69
2021/01/13 06:36:32;;;;;;;91.63;50.38;;;;;;;;;;5098360;28;20472;-69
2021/01/13 06:39:02;;;;;;;88.18;44.67;;;;;;;;;;5097727;28;20020;-69
2021/01/13 06:41:29;;;;;;;87.05;47.15;;;;;;;;;;5098188;28;20020;-69
2021/01/13 06:43:59;;;;;;;83.63;42.85;;;;;;;;;;5097589;28;20057;-69
2021/01/13 06:46:26;;;;;;;95.15;49.90;;;;;;;;;;5095920;28;20032;-68
2021/01/13 06:48:53;;;;;;;106.38;57.33;;;;;;;;;;5098052;28;20365;-69
2021/01/13 06:51:20;;;;;;;108.15;57.83;;;;;;;;;;5097772;28;20052;-71
2021/01/13 06:53:47;;;;;;;100.28;55.67;;;;;;;;;;5097325;28;20012;-70
2021/01/13 06:56:16;;;;;;;106.90;58.65;;;;;;;;;;5097660;28;20027;-69
2021/01/13 06:59:03;;;;;;;84.68;41.70;;;;;;;;;;5097495;28;20020;-70
2021/01/13 07:01:30;;;;;;;108.47;56.92;;;;;;;;;;5097883;28;20064;-69
2021/01/13 07:04:00;;;;;;;99.18;56.58;;;;;;;;;;5098061;28;20012;-70
2021/01/13 07:06:26;;;;;;;106.53;58.83;;;;;;;;;;5097376;28;20020;-68
2021/01/13 07:08:52;;;;;;;115.68;63.55;;;;;;;;;;5097243;28;20028;-66
2021/01/13 07:11:19;;;;;;;99.68;53.20;;;;;;;;;;5096484;28;20024;-68
2021/01/13 07:13:55;;;;;;;98.78;53.08;;;;;;;;;;5095846;28;20152;-67
2021/01/13 07:16:31;;;;;;;85.10;47.67;;;;;;;;;;5096005;28;20016;-67
2021/01/13 07:18:57;;;;;;;83.53;41.97;;;;;;;;;;5097276;28;20066;-68
2021/01/13 07:21:35;;;;;;;110.25;50.10;;;;;;;;;;5076564;28;20021;-69
2021/01/13 07:24:01;;;;;;;160.05;69.45;;;;;;;;;;5075637;28;20059;-70
2021/01/13 07:26:27;;;;;;;160.52;71.40;;;;;;;;;;5075106;28;20031;-68
2021/01/13 07:28:54;;;;;;;138.45;64.72;;;;;;;;;;5089888;28;20028;-69
2021/01/13 07:31:28;;;;;;;114.17;55.40;;;;;;;;;;5095127;28;20067;-67
2021/01/13 07:33:59;;;;;;;113.05;53.85;;;;;;;;;;5096714;28;20244;-68
2021/01/13 07:36:31;;;;;;;96.85;47.50;;;;;;;;;;5096916;28;20028;-66
2021/01/13 07:39:03;;;;;;;91.03;45.22;;;;;;;;;;5097208;28;20055;-68
2021/01/13 07:41:49;;;;;;;118.75;53.25;;;;;;;;;;5096144;28;20016;-69
2021/01/13 07:44:32;;;;;;;115.97;49.80;;;;;;;;;;5085554;28;20036;-70
2021/01/13 07:47:01;;;;;;;118.55;49.83;;;;;;;;;;5097021;28;20034;-65
2021/01/13 07:49:40;;;;;;;133.48;53.42;;;;;;;;;;5096341;28;20024;-71
2021/01/13 07:52:08;;;;;;;114.18;47.30;;;;;;;;;;5096799;28;20020;-68
2021/01/13 07:54:35;;;;;;;106.80;44.90;;;;;;;;;;5096193;28;20059;-69
2021/01/13 07:57:03;;;;;;;93.13;40.20;;;;;;;;;;5096476;28;20524;-71
2021/01/13 07:59:41;;;;;;;86.30;41.83;;;;;;;;;;5094737;28;20042;-68
2021/01/13 08:02:26;;;;;;;91.40;40.45;;;;;;;;;;5096124;28;20027;-68
2021/01/13 08:04:52;;;;;;;77.15;37.50;;;;;;;;;;5096348;28;20032;-69
2021/01/13 08:07:32;;;;;;;63.15;33.72;;;;;;;;;;5096005;28;20024;-69
2021/01/13 08:10:00;;;;;;;70.38;35.65;;;;;;;;;;5095795;28;20095;-69
2021/01/13 08:12:41;;;;;;;65.43;34.20;;;;;;;;;;5096138;28;20042;-67
2021/01/13 08:15:10;;;;;;;76.13;37.42;;;;;;;;;;5094313;28;20030;-68
2021/01/13 08:17:54;;;;;;;73.97;36.75;;;;;;;;;;5094162;28;20026;-70
2021/01/13 08:20:39;;;;;;;74.80;38.13;;;;;;;;;;5096296;28;20016;-67
2021/01/13 08:23:10;;;;;;;81.40;38.03;;;;;;;;;;5095422;28;20020;-68
2021/01/13 08:25:37;;;;;;;72.47;37.58;;;;;;;;;;5095687;28;20024;-72
2021/01/13 08:28:03;;;;;;;74.05;36.63;;;;;;;;;;5095470;28;20073;-72
2021/01/13 08:30:30;;;;;;;73.05;37.30;;;;;;;;;;5094084;28;20036;-71
2021/01/13 08:32:57;;;;;;;78.60;39.38;;;;;;;;;;5095431;28;20345;-73
2021/01/13 08:35:42;;;;;;;68.38;38.45;;;;;;;;;;5094501;28;20035;-75
2021/01/13 08:38:09;;;;;;;68.07;35.75;;;;;;;;;;5094228;28;20012;-73
2021/01/13 08:40:37;;;;;;;71.65;36.03;;;;;;;;;;5094666;28;20360;-75
2021/01/13 08:43:13;;;;;;;62.75;34.08;;;;;;;;;;5095648;28;20103;-69
2021/01/13 08:45:41;;;;;;;59.13;33.43;;;;;;;;;;5093788;28;20427;-68
2021/01/13 08:48:09;;;;;;;61.67;33.70;;;;;;;;;;5094235;28;20058;-70
2021/01/13 08:50:35;;;;;;;;;;;;;;;;;;5094668;28;20370;-71
2021/01/13 08:53:04;;;;;;;75.00;38.53;;;;;;;;;;5093268;28;19900;-69
2021/01/13 08:55:31;;;;;;;72.28;36.10;;;;;;;;;;5094089;28;20043;-70
2021/01/13 08:57:57;;;;;;;67.90;33.53;;;;;;;;;;5093242;28;20024;-71
2021/01/13 09:00:24;;;;;;;83.57;41.20;;;;;;;;;;5094176;28;20020;-70
2021/01/13 09:03:01;;;;;;;98.47;51.42;;;;;;;;;;5094337;28;20407;-74
2021/01/13 09:05:36;;;;;;;65.53;33.13;;;;;;;;;;5095209;28;20105;-73
2021/01/13 09:08:04;;;;;;;54.03;27.38;;;;;;;;;;5095342;28;20035;-70
2021/01/13 09:10:30;;;;;;;;;;;;;;;;;;5094367;28;20080;-72
2021/01/13 09:12:56;;;;;;;56.67;29.17;;;;;;;;;;5094497;28;20356;-72
2021/01/13 09:15:28;;;;;;;46.88;24.23;;;;;;;;;;5094697;28;20028;-72
2021/01/13 09:17:58;;;;;;;44.72;22.90;;;;;;;;;;5093391;28;20024;-74
2021/01/13 09:20:29;;;;;;;43.63;25.67;;;;;;;;;;5094293;28;20026;-72
2021/01/13 09:22:56;;;;;;;46.03;25.05;;;;;;;;;;5095415;28;20023;-73
2021/01/13 09:25:44;;;;;;;41.35;24.45;;;;;;;;;;5093816;28;20464;-73
2021/01/13 09:28:19;;;;;;;39.92;21.42;;;;;;;;;;5082091;28;20023;-71
2021/01/13 09:30:45;;;;;;;35.55;21.50;;;;;;;;;;5094179;28;20174;-71
2021/01/13 09:33:12;;;;;;;47.00;22.67;;;;;;;;;;5092936;28;20020;-69
2021/01/13 09:35:40;;;;;;;44.42;22.35;;;;;;;;;;5093579;28;20491;-69
2021/01/13 09:38:13;;;;;;;35.20;19.55;;;;;;;;;;5094064;28;20016;-68
2021/01/13 09:41:01;;;;;;;53.03;25.10;;;;;;;;;;5087330;28;20022;-70
2021/01/13 09:43:27;;;;;;;39.05;18.85;;;;;;;;;;5094423;28;20092;-70
2021/01/13 09:45:54;;;;;;;26.70;14.63;;;;;;;;;;5094011;28;20480;-71
2021/01/13 09:48:21;;;;;;;28.38;15.27;;;;;;;;;;5092592;28;20020;-71
2021/01/13 09:50:57;;;;;;;30.92;18.02;;;;;;;;;;5094431;28;20020;-72
2021/01/13 09:53:28;;;;;;;29.02;15.20;;;;;;;;;;5093641;28;20020;-68
2021/01/13 09:55:55;;;;;;;30.20;16.40;;;;;;;;;;5092951;28;20361;-70
2021/01/13 09:58:34;;;;;;;27.23;12.93;;;;;;;;;;5093965;28;20058;-72
2021/01/13 10:01:06;;;;;;;34.33;15.75;;;;;;;;;;5092964;28;20048;-70
2021/01/13 10:03:32;;;;;;;20.35;10.55;;;;;;;;;;5094214;28;20024;-71
2021/01/13 10:05:59;;;;;;;15.05;8.35;;;;;;;;;;5091501;28;20024;-69
2021/01/13 10:08:31;;;;;;;19.10;9.13;;;;;;;;;;5094020;28;20012;-70
2021/01/13 10:11:01;;;;;;;48.88;18.77;;;;;;;;;;5094078;28;20020;-69
2021/01/13 10:13:30;;;;;;;16.05;8.18;;;;;;;;;;5093553;28;20012;-71
2021/01/13 10:16:02;;;;;;;13.40;7.13;;;;;;;;;;5093980;28;20023;-70
2021/01/13 10:18:29;;;;;;;12.45;5.65;;;;;;;;;;5093735;28;20361;-68
2021/01/13 10:20:59;;;;;;;12.77;5.25;;;;;;;;;;5093743;28;20552;-69
2021/01/13 10:23:26;;;;;;;13.18;6.55;;;;;;;;;;5092491;28;20456;-66
2021/01/13 10:25:59;;;;;;;13.48;7.18;;;;;;;;;;5093902;28;20111;-69
2021/01/13 10:28:28;;;;;;;25.45;9.98;;;;;;;;;;5093912;28;20024;-68
2021/01/13 10:30:55;;;;;;;15.98;9.68;;;;;;;;;;5093356;28;20384;-67
2021/01/13 10:33:41;;;;;;;8.55;4.65;;;;;;;;;;5093797;28;20012;-69
2021/01/13 10:36:07;;;;;;;11.20;6.65;;;;;;;;;;5093346;28;20031;-70
2021/01/13 10:38:38;;;;;;;14.75;6.53;;;;;;;;;;5093525;28;20407;-70
2021/01/13 10:41:05;;;;;;;12.15;5.32;;;;;;;;;;5092865;28;20016;-68
2021/01/13 10:43:33;;;;;;;11.50;3.72;;;;;;;;;;5094393;28;20020;-71
2021/01/13 10:45:59;;;;;;;16.30;5.95;;;;;;;;;;5093123;28;20029;-70
2021/01/13 10:48:25;;;;;;;16.35;5.57;;;;;;;;;;5094729;28;20050;-74
2021/01/13 10:50:52;;;;;;;8.13;4.72;;;;;;;;;;5093882;28;20027;-70
2021/01/13 10:53:18;;;;;;;7.85;4.07;;;;;;;;;;5093983;28;20028;-70
2021/01/13 10:55:45;;;;;;;11.18;5.32;;;;;;;;;;5093141;28;20020;-70
2021/01/13 10:58:11;;;;;;;8.68;3.00;;;;;;;;;;5093862;28;20106;-70
2021/01/13 11:00:37;;;;;;;10.90;4.30;;;;;;;;;;5093332;28;20024;-71
2021/01/13 11:03:04;;;;;;;14.88;7.10;;;;;;;;;;5094413;28;20020;-73
2021/01/13 11:05:36;;;;;;;18.02;7.72;;;;;;;;;;5092987;28;20144;-73
2021/01/13 11:08:03;;;;;;;12.98;5.90;;;;;;;;;;5093598;28;20204;-71
2021/01/13 11:10:30;;;;;;;17.17;6.60;;;;;;;;;;5094477;28;20016;-71
2021/01/13 11:13:03;;;;;;;16.88;5.78;;;;;;;;;;5094449;28;20069;-75
2021/01/13 11:15:29;;;;;;;12.00;5.43;;;;;;;;;;5095444;28;20021;-71
2021/01/13 11:17:56;;;;;;;13.40;6.55;;;;;;;;;;5097011;28;20019;-69
2021/01/13 11:20:23;;;;;;;13.70;5.80;;;;;;;;;;5096002;28;20055;-71
2021/01/13 11:22:57;;;;;;;15.02;6.13;;;;;;;;;;5096084;28;20536;-71
2021/01/13 11:25:30;;;;;;;12.98;5.50;;;;;;;;;;5096814;28;20545;-70
2021/01/13 11:27:57;;;;;;;11.40;3.58;;;;;;;;;;5094479;28;20030;-71
2021/01/13 11:30:24;;;;;;;13.52;5.57;;;;;;;;;;5095396;28;20036;-70
2021/01/13 11:32:54;;;;;;;6.38;3.13;;;;;;;;;;5094919;28;20027;-71
2021/01/13 11:35:40;;;;;;;8.10;2.25;;;;;;;;;;5095693;28;20044;-69
2021/01/13 11:38:06;;;;;;;9.60;4.20;;;;;;;;;;5097655;28;20099;-70
2021/01/13 11:40:55;;;;;;;17.50;4.75;;;;;;;;;;5096564;28;20249;-70
2021/01/13 11:43:33;;;;;;;16.80;6.07;;;;;;;;;;5093677;28;20107;-72
2021/01/13 11:45:59;;;;;;;18.25;9.50;;;;;;;;;;5096229;28;20069;-71
2021/01/13 11:48:30;;;;;;;7.85;4.13;;;;;;;;;;5096931;28;20532;-70
2021/01/13 11:51:01;;;;;;;15.52;6.95;;;;;;;;;;5096687;28;20020;-71
2021/01/13 11:53:30;;;;;;;10.63;3.60;;;;;;;;;;5095998;28;20017;-73
2021/01/13 11:56:01;;;;;;;14.15;5.15;;;;;;;;;;5096548;28;20027;-70
2021/01/13 11:58:29;;;;;;;14.90;4.57;;;;;;;;;;5097098;28;20099;-70
2021/01/13 12:00:55;;;;;;;12.50;6.93;;;;;;;;;;5094865;28;20027;-69
2021/01/13 12:03:23;;;;;;;11.82;5.13;;;;;;;;;;5096687;28;20027;-70
2021/01/13 12:05:49;;;;;;;17.73;6.30;;;;;;;;;;5095044;28;20031;-70
2021/01/13 12:08:20;;;;;;;11.17;5.00;;;;;;;;;;5096044;28;20330;-69
2021/01/13 12:10:49;;;;;;;16.50;6.75;;;;;;;;;;5096866;28;20012;-70
2021/01/13 12:13:20;;;;;;;21.98;6.35;;;;;;;;;;5095949;28;20015;-72
2021/01/13 12:15:49;;;;;;;11.90;5.25;;;;;;;;;;5095673;28;20460;-71
2021/01/13 12:18:23;;;;;;;17.60;7.28;;;;;;;;;;5096412;28;20031;-71
2021/01/13 12:20:49;;;;;;;16.42;6.95;;;;;;;;;;5095642;28;20458;-75
2021/01/13 12:23:23;;;;;;;15.57;5.25;;;;;;;;;;5091486;28;20060;-70
2021/01/13 12:25:50;;;;;;;18.70;7.32;;;;;;;;;;5095749;28;20024;-72
2021/01/13 12:28:16;;;;;;;16.60;7.65;;;;;;;;;;5094935;28;20376;-72
2021/01/13 12:30:52;;;;;;;11.98;5.28;;;;;;;;;;5075473;28;20048;-72
2021/01/13 12:33:20;;;;;;;11.93;5.13;;;;;;;;;;5102395;28;20024;-70
2021/01/13 12:35:46;;;;;;;12.70;6.55;;;;;;;;;;5111165;28;20023;-71
2021/01/13 12:38:13;;;;;;;10.80;5.75;;;;;;;;;;5095011;28;20079;-71
2021/01/13 12:40:39;;;;;;;7.45;2.42;;;;;;;;;;5095639;28;20065;-72
2021/01/13 12:43:12;;;;;;;18.73;5.85;;;;;;;;;;5093696;28;20032;-72
2021/01/13 12:45:38;;;;;;;16.27;5.60;;;;;;;;;;5095423;28;20024;-71
2021/01/13 12:48:05;;;;;;;14.50;5.00;;;;;;;;;;5095774;28;20023;-72
2021/01/13 12:50:31;;;;;;;19.90;6.13;;;;;;;;;;5093862;28;20016;-72
2021/01/13 12:52:57;;;;;;;15.00;5.32;;;;;;;;;;5094020;28;20556;-73
2021/01/13 12:55:23;;;;;;;8.73;2.50;;;;;;;;;;5093272;28;20040;-74
2021/01/13 12:57:49;;;;;;;8.40;3.80;;;;;;;;;;5092383;28;20032;-72
2021/01/13 13:00:15;;;;;;;13.27;4.38;;;;;;;;;;5092505;28;20087;-73
2021/01/13 13:02:41;;;;;;;10.55;4.38;;;;;;;;;;5092676;28;20020;-72
2021/01/13 13:05:08;;;;;;;11.57;3.28;;;;;;;;;;5093810;28;20051;-70
2021/01/13 13:07:34;;;;;;;25.65;8.38;;;;;;;;;;5093448;28;20031;-76
2021/01/13 13:10:01;;;;;;;18.08;7.25;;;;;;;;;;5094542;28;20020;-71
2021/01/13 13:12:27;;;;;;;20.55;7.57;;;;;;;;;;5094702;28;20020;-70
2021/01/13 13:14:54;;;;;;;21.02;9.50;;;;;;;;;;5093559;28;20157;-69
2021/01/13 13:17:20;;;;;;;29.98;11.05;;;;;;;;;;5093741;28;20023;-68
2021/01/13 13:19:47;;;;;;;23.55;11.00;;;;;;;;;;5092165;28;20361;-71
2021/01/13 13:22:13;;;;;;;8.75;4.45;;;;;;;;;;5090007;28;20022;-70
2021/01/13 13:24:39;;;;;;;9.85;3.50;;;;;;;;;;5091792;28;20012;-72
2021/01/13 13:27:08;;;;;;;9.57;3.45;;;;;;;;;;5086385;28;20025;-70
2021/01/13 13:29:37;;;;;;;14.20;5.93;;;;;;;;;;5092758;28;20016;-72
2021/01/13 13:32:04;;;;;;;10.98;3.75;;;;;;;;;;5091479;28;20088;-75
2021/01/13 13:34:30;;;;;;;17.40;6.50;;;;;;;;;;5092775;28;20122;-73
2021/01/13 13:37:00;;;;;;;13.10;7.25;;;;;;;;;;5092977;28;20403;-73
2021/01/13 13:39:26;;;;;;;24.65;11.20;;;;;;;;;;5092857;28;20073;-72
2021/01/13 13:41:56;;;;;;;15.15;6.38;;;;;;;;;;5085953;28;20024;-72
2021/01/13 13:44:23;;;;;;;37.92;16.40;;;;;;;;;;5090015;28;20028;-72
2021/01/13 13:46:49;;;;;;;40.33;14.88;;;;;;;;;;5093140;28;20055;-72
2021/01/13 13:49:15;;;;;;;21.02;10.65;;;;;;;;;;5093872;28;20026;-72
2021/01/13 13:51:44;;;;;;;18.70;8.45;;;;;;;;;;5091393;28;20878;-70
2021/01/13 13:54:11;;;;;;;20.13;9.45;;;;;;;;;;5091379;28;20028;-71
2021/01/13 13:56:37;;;;;;;14.57;5.68;;;;;;;;;;5092872;28;20095;-72
2021/01/13 13:59:03;;;;;;;18.20;7.78;;;;;;;;;;5090127;28;20020;-69
2021/01/13 14:01:32;;;;;;;27.27;11.50;;;;;;;;;;5091919;28;20016;-71
2021/01/13 14:03:59;;;;;;;46.88;14.18;;;;;;;;;;5090702;28;20469;-71
2021/01/13 14:06:26;;;;;;;50.55;17.92;;;;;;;;;;5091509;28;20088;-70
2021/01/13 14:08:52;;;;;;;45.37;17.20;;;;;;;;;;5092971;28;20016;-73
2021/01/13 14:11:19;;;;;;;47.85;18.50;;;;;;;;;;5092188;28;20016;-70
2021/01/13 14:13:45;;;;;;;49.90;17.95;;;;;;;;;;5091794;28;20066;-71
2021/01/13 14:16:11;;;;;;;56.47;19.90;;;;;;;;;;5092882;28;20036;-70
2021/01/13 14:18:37;;;;;;;32.53;12.55;;;;;;;;;;5093021;28;20024;-71
2021/01/13 14:21:03;;;;;;;32.95;13.50;;;;;;;;;;5090097;28;20369;-71
2021/01/13 14:23:30;;;;;;;25.65;10.38;;;;;;;;;;5092289;28;20031;-73
2021/01/13 14:25:56;;;;;;;21.33;8.15;;;;;;;;;;5091571;28;20020;-73
2021/01/13 14:28:22;;;;;;;24.98;9.55;;;;;;;;;;5088152;28;20810;-71
2021/01/13 14:30:48;;;;;;;33.53;14.32;;;;;;;;;;5091306;28;20051;-72